createdAt,value
2017-11-27T00:00:29.157Z,0
2017-11-27T00:01:41.734Z,0
2017-11-27T00:02:54.767Z,0
2017-11-27T00:04:07.772Z,0
2017-11-27T00:05:20.808Z,0
2017-11-27T00:06:33.307Z,0
2017-11-27T00:07:45.808Z,0
2017-11-27T00:08:58.806Z,0
2017-11-27T00:10:11.784Z,0
2017-11-27T00:11:24.745Z,0
2017-11-27T00:12:37.747Z,0
2017-11-27T00:13:49.327Z,0
2017-11-27T00:15:02.283Z,0
2017-11-27T00:16:14.866Z,0
2017-11-27T00:17:27.870Z,0
2017-11-27T00:18:40.448Z,0
2017-11-27T00:19:53.479Z,0
2017-11-27T00:21:06.465Z,0
2017-11-27T00:22:18.987Z,0
2017-11-27T00:23:31.494Z,0
2017-11-27T00:24:44.495Z,0
2017-11-27T00:25:57.460Z,0
2017-11-27T00:27:09.529Z,0
2017-11-27T00:28:22.514Z,0
2017-11-27T00:29:34.582Z,0
2017-11-27T00:30:47.062Z,0
2017-11-27T00:32:00.038Z,0
2017-11-27T00:33:12.561Z,0
2017-11-27T00:34:25.060Z,0
2017-11-27T00:35:37.549Z,0
2017-11-27T00:36:50.569Z,0
2017-11-27T00:38:03.602Z,0
2017-11-27T00:39:16.078Z,0
2017-11-27T00:40:29.087Z,0
2017-11-27T00:41:42.168Z,0
2017-11-27T00:42:55.154Z,0
2017-11-27T00:44:08.166Z,0
2017-11-27T00:45:20.738Z,0
2017-11-27T00:46:33.927Z,0
2017-11-27T00:47:46.431Z,0
2017-11-27T00:48:58.984Z,0
2017-11-27T00:50:11.510Z,0
2017-11-27T00:51:24.491Z,0
2017-11-27T00:52:36.532Z,0
2017-11-27T00:53:49.265Z,0
2017-11-27T00:55:02.239Z,0
2017-11-27T00:56:15.233Z,0
2017-11-27T00:57:27.744Z,0
2017-11-27T00:58:40.280Z,0
2017-11-27T00:59:53.021Z,0
2017-11-27T01:01:06.011Z,0
2017-11-27T01:02:18.529Z,0
2017-11-27T01:03:31.509Z,0
2017-11-27T01:04:44.518Z,0
2017-11-27T01:05:57.009Z,0
2017-11-27T01:07:09.560Z,0
2017-11-27T01:08:22.146Z,0
2017-11-27T01:09:35.165Z,0
2017-11-27T01:10:47.703Z,0
2017-11-27T01:12:00.675Z,0
2017-11-27T01:13:13.666Z,0
2017-11-27T01:14:26.168Z,0
2017-11-27T01:15:39.162Z,0
2017-11-27T01:16:52.205Z,0
2017-11-27T01:18:05.173Z,0
2017-11-27T01:19:17.678Z,0
2017-11-27T01:20:29.697Z,0
2017-11-27T01:21:42.655Z,0
2017-11-27T01:22:55.159Z,0
2017-11-27T01:24:07.706Z,0
2017-11-27T01:25:20.229Z,0
2017-11-27T01:26:33.246Z,0
2017-11-27T01:27:46.253Z,0
2017-11-27T01:28:58.310Z,0
2017-11-27T01:30:10.868Z,0
2017-11-27T01:31:23.877Z,0
2017-11-27T01:32:36.885Z,0
2017-11-27T01:33:49.451Z,0
2017-11-27T01:35:02.517Z,0
2017-11-27T01:36:15.044Z,0
2017-11-27T01:37:28.022Z,0
2017-11-27T01:38:40.554Z,0
2017-11-27T01:39:53.566Z,0
2017-11-27T01:41:06.567Z,0
2017-11-27T01:42:19.501Z,0
2017-11-27T01:43:31.979Z,0
2017-11-27T01:44:44.531Z,0
2017-11-27T01:45:57.496Z,0
2017-11-27T01:47:10.491Z,0
2017-11-27T01:48:23.493Z,0
2017-11-27T01:49:36.236Z,0
2017-11-27T01:50:49.230Z,0
2017-11-27T01:52:02.254Z,0
2017-11-27T01:53:15.427Z,0
2017-11-27T01:54:28.495Z,0
2017-11-27T01:55:40.998Z,0
2017-11-27T01:56:53.522Z,0
2017-11-27T01:58:06.086Z,0
2017-11-27T01:59:18.625Z,0
2017-11-27T02:00:31.628Z,0
2017-11-27T02:01:44.106Z,0
2017-11-27T02:02:56.654Z,0
2017-11-27T02:04:09.656Z,0
2017-11-27T02:05:22.662Z,0
2017-11-27T02:06:35.708Z,0
2017-11-27T02:07:48.740Z,0
2017-11-27T02:09:01.964Z,0
2017-11-27T02:10:14.944Z,0
2017-11-27T02:11:27.940Z,0
2017-11-27T02:12:40.899Z,0
2017-11-27T02:13:53.925Z,0
2017-11-27T02:15:06.908Z,0
2017-11-27T02:16:20.059Z,0
2017-11-27T02:17:33.065Z,0
2017-11-27T02:18:46.049Z,0
2017-11-27T02:19:59.033Z,0
2017-11-27T02:21:12.069Z,0
2017-11-27T02:22:24.612Z,0
2017-11-27T02:23:37.864Z,0
2017-11-27T02:24:50.576Z,0
2017-11-27T02:26:03.772Z,0
2017-11-27T02:27:16.799Z,0
2017-11-27T02:28:29.784Z,0
2017-11-27T02:29:42.258Z,0
2017-11-27T02:30:55.292Z,0
2017-11-27T02:32:07.384Z,0
2017-11-27T02:33:20.390Z,0
2017-11-27T02:34:33.379Z,0
2017-11-27T02:35:46.365Z,0
2017-11-27T02:36:59.369Z,0
2017-11-27T02:38:12.421Z,0
2017-11-27T02:39:25.410Z,0
2017-11-27T02:40:37.960Z,0
2017-11-27T02:41:50.531Z,0
2017-11-27T02:43:02.555Z,0
2017-11-27T02:44:15.542Z,0
2017-11-27T02:45:28.554Z,0
2017-11-27T02:46:41.111Z,0
2017-11-27T02:47:53.630Z,0
2017-11-27T02:49:06.180Z,0
2017-11-27T02:50:18.737Z,0
2017-11-27T02:51:31.260Z,0
2017-11-27T02:52:43.788Z,0
2017-11-27T02:53:56.791Z,0
2017-11-27T02:55:09.821Z,0
2017-11-27T02:56:23.040Z,0
2017-11-27T02:57:36.014Z,0
2017-11-27T02:58:49.035Z,0
2017-11-27T03:00:01.594Z,0
2017-11-27T03:01:14.145Z,0
2017-11-27T03:02:27.142Z,0
2017-11-27T03:03:39.654Z,0
2017-11-27T03:04:52.162Z,0
2017-11-27T03:06:05.200Z,0
2017-11-27T03:07:18.190Z,0
2017-11-27T03:08:30.712Z,0
2017-11-27T03:09:43.237Z,0
2017-11-27T03:10:56.333Z,0
2017-11-27T03:12:09.293Z,0
2017-11-27T03:13:21.820Z,0
2017-11-27T03:14:34.808Z,0
2017-11-27T03:15:47.322Z,0
2017-11-27T03:17:00.265Z,0
2017-11-27T03:18:13.207Z,0
2017-11-27T03:19:26.240Z,0
2017-11-27T03:20:39.243Z,0
2017-11-27T03:21:52.432Z,0
2017-11-27T03:23:05.430Z,0
2017-11-27T03:24:18.442Z,0
2017-11-27T03:25:31.396Z,0
2017-11-27T03:26:43.918Z,0
2017-11-27T03:27:56.506Z,0
2017-11-27T03:29:09.582Z,0
2017-11-27T03:30:22.614Z,0
2017-11-27T03:31:35.637Z,0
2017-11-27T03:32:48.683Z,0
2017-11-27T03:34:01.245Z,0
2017-11-27T03:35:14.478Z,0
2017-11-27T03:36:26.545Z,0
2017-11-27T03:37:39.072Z,0
2017-11-27T03:38:51.657Z,0
2017-11-27T03:40:04.363Z,0
2017-11-27T03:41:17.377Z,0
2017-11-27T03:42:28.946Z,0
2017-11-27T03:43:41.473Z,0
2017-11-27T03:44:54.455Z,0
2017-11-27T03:46:07.422Z,0
2017-11-27T03:47:20.445Z,0
2017-11-27T03:48:32.982Z,0
2017-11-27T03:49:45.966Z,0
2017-11-27T03:50:58.942Z,0
2017-11-27T03:52:11.978Z,0
2017-11-27T03:53:24.939Z,0
2017-11-27T03:54:37.946Z,0
2017-11-27T03:55:50.446Z,0
2017-11-27T03:57:03.437Z,0
2017-11-27T03:58:16.047Z,0
2017-11-27T03:59:29.080Z,0
2017-11-27T04:00:42.070Z,0
2017-11-27T04:01:55.114Z,0
2017-11-27T04:03:08.105Z,0
2017-11-27T04:04:21.101Z,0
2017-11-27T04:05:34.108Z,0
2017-11-27T04:06:46.613Z,0
2017-11-27T04:07:59.555Z,0
2017-11-27T04:09:12.123Z,0
2017-11-27T04:10:25.129Z,0
2017-11-27T04:11:38.162Z,0
2017-11-27T04:12:50.659Z,0
2017-11-27T04:14:03.747Z,0
2017-11-27T04:15:16.286Z,0
2017-11-27T04:16:29.294Z,0
2017-11-27T04:17:42.501Z,0
2017-11-27T04:18:55.038Z,0
2017-11-27T04:20:08.003Z,0
2017-11-27T04:21:21.014Z,0
2017-11-27T04:22:33.530Z,0
2017-11-27T04:23:46.489Z,0
2017-11-27T04:24:59.495Z,0
2017-11-27T04:26:11.986Z,0
2017-11-27T04:27:24.992Z,0
2017-11-27T04:28:37.557Z,0
2017-11-27T04:29:50.547Z,0
2017-11-27T04:31:03.543Z,0
2017-11-27T04:32:16.522Z,0
2017-11-27T04:33:29.020Z,0
2017-11-27T04:34:41.062Z,0
2017-11-27T04:35:54.082Z,0
2017-11-27T04:37:07.103Z,0
2017-11-27T04:38:19.676Z,0
2017-11-27T04:39:32.242Z,0
2017-11-27T04:40:44.809Z,0
2017-11-27T04:41:57.780Z,0
2017-11-27T04:43:10.776Z,0
2017-11-27T04:44:23.253Z,0
2017-11-27T04:45:36.302Z,0
2017-11-27T04:46:49.333Z,0
2017-11-27T04:48:01.420Z,0
2017-11-27T04:49:13.927Z,0
2017-11-27T04:50:26.914Z,0
2017-11-27T04:51:39.924Z,0
2017-11-27T04:52:52.929Z,0
2017-11-27T04:54:05.909Z,0
2017-11-27T04:55:18.900Z,0
2017-11-27T04:56:31.864Z,0
2017-11-27T04:57:44.872Z,0
2017-11-27T04:58:57.445Z,0
2017-11-27T05:00:10.436Z,0
2017-11-27T05:01:23.432Z,0
2017-11-27T05:02:35.989Z,0
2017-11-27T05:03:48.534Z,0
2017-11-27T05:05:01.068Z,0
2017-11-27T05:06:14.116Z,0
2017-11-27T05:07:26.657Z,0
2017-11-27T05:08:39.469Z,0
2017-11-27T05:09:52.490Z,0
2017-11-27T05:11:05.052Z,0
2017-11-27T05:12:18.071Z,0
2017-11-27T05:13:31.097Z,0
2017-11-27T05:14:43.608Z,0
2017-11-27T05:15:56.121Z,0
2017-11-27T05:17:09.141Z,0
2017-11-27T05:18:22.134Z,0
2017-11-27T05:19:35.122Z,0
2017-11-27T05:20:48.114Z,0
2017-11-27T05:22:01.102Z,0
2017-11-27T05:23:13.153Z,0
2017-11-27T05:24:26.201Z,0
2017-11-27T05:25:39.228Z,0
2017-11-27T05:26:51.776Z,0
2017-11-27T05:28:04.337Z,0
2017-11-27T05:29:17.339Z,0
2017-11-27T05:30:30.349Z,0
2017-11-27T05:31:43.386Z,0
2017-11-27T05:32:56.399Z,0
2017-11-27T05:34:09.433Z,0
2017-11-27T05:35:22.417Z,0
2017-11-27T05:36:35.410Z,0
2017-11-27T05:37:47.430Z,0
2017-11-27T05:39:00.443Z,0
2017-11-27T05:40:13.453Z,0
2017-11-27T05:41:26.243Z,0
2017-11-27T05:42:39.284Z,0
2017-11-27T05:43:51.838Z,0
2017-11-27T05:45:04.847Z,0
2017-11-27T05:46:17.839Z,0
2017-11-27T05:47:30.889Z,0
2017-11-27T05:48:43.398Z,0
2017-11-27T05:49:56.381Z,0
2017-11-27T05:51:09.556Z,0
2017-11-27T05:52:22.560Z,0
2017-11-27T05:53:35.090Z,0
2017-11-27T05:54:47.114Z,0
2017-11-27T05:56:00.128Z,0
2017-11-27T05:57:13.105Z,0
2017-11-27T05:58:26.101Z,0
2017-11-27T05:59:38.597Z,0
2017-11-27T06:00:51.162Z,0
2017-11-27T06:02:04.202Z,0
2017-11-27T06:03:16.737Z,0
2017-11-27T06:04:29.716Z,0
2017-11-27T06:05:42.265Z,0
2017-11-27T06:06:54.817Z,0
2017-11-27T06:08:07.864Z,0
2017-11-27T06:09:20.860Z,0
2017-11-27T06:10:33.889Z,0
2017-11-27T06:11:46.929Z,0
2017-11-27T06:12:59.006Z,0
2017-11-27T06:14:11.995Z,0
2017-11-27T06:15:24.984Z,0
2017-11-27T06:16:38.194Z,0
2017-11-27T06:17:50.771Z,0
2017-11-27T06:19:03.808Z,0
2017-11-27T06:20:16.781Z,0
2017-11-27T06:21:29.950Z,0
2017-11-27T06:22:42.972Z,0
2017-11-27T06:23:55.928Z,0
2017-11-27T06:25:08.934Z,0
2017-11-27T06:26:21.901Z,0
2017-11-27T06:27:34.868Z,0
2017-11-27T06:28:47.390Z,0
2017-11-27T06:30:00.404Z,0
2017-11-27T06:31:12.930Z,0
2017-11-27T06:32:25.951Z,0
2017-11-27T06:33:38.494Z,0
2017-11-27T06:34:51.529Z,0
2017-11-27T06:36:04.058Z,0
2017-11-27T06:37:17.028Z,0
2017-11-27T06:38:29.558Z,0
2017-11-27T06:39:42.521Z,0
2017-11-27T06:40:55.082Z,0
2017-11-27T06:42:08.128Z,0
2017-11-27T06:43:20.758Z,0
2017-11-27T06:44:32.819Z,0
2017-11-27T06:45:45.778Z,0
2017-11-27T06:46:58.769Z,0
2017-11-27T06:48:11.737Z,0
2017-11-27T06:49:24.722Z,0
2017-11-27T06:50:37.655Z,0
2017-11-27T06:51:50.646Z,0
2017-11-27T06:53:03.149Z,0
2017-11-27T06:54:16.159Z,0
2017-11-27T06:55:28.630Z,0
2017-11-27T06:56:41.192Z,0
2017-11-27T06:57:53.703Z,0
2017-11-27T06:59:06.688Z,0
2017-11-27T07:00:19.870Z,0
2017-11-27T07:01:32.877Z,0
2017-11-27T07:02:45.457Z,0
2017-11-27T07:03:58.480Z,0
2017-11-27T07:05:11.465Z,0
2017-11-27T07:06:23.970Z,0
2017-11-27T07:07:36.923Z,0
2017-11-27T07:08:49.920Z,0
2017-11-27T07:10:02.881Z,0
2017-11-27T07:11:15.865Z,0
2017-11-27T07:12:28.877Z,0
2017-11-27T07:13:40.951Z,0
2017-11-27T07:14:53.963Z,0
2017-11-27T07:16:07.210Z,0
2017-11-27T07:17:20.262Z,0
2017-11-27T07:18:33.285Z,0
2017-11-27T07:19:46.278Z,0
2017-11-27T07:20:59.238Z,0
2017-11-27T07:22:12.178Z,0
2017-11-27T07:23:24.701Z,0
2017-11-27T07:24:37.234Z,0
2017-11-27T07:25:49.800Z,0
2017-11-27T07:27:02.998Z,0
2017-11-27T07:28:15.552Z,0
2017-11-27T07:29:28.547Z,0
2017-11-27T07:30:41.493Z,0
2017-11-27T07:31:54.476Z,0
2017-11-27T07:33:07.675Z,0
2017-11-27T07:34:20.692Z,0
2017-11-27T07:35:33.702Z,0
2017-11-27T07:36:46.694Z,0
2017-11-27T07:37:59.676Z,0
2017-11-27T07:39:12.631Z,0
2017-11-27T07:40:25.644Z,0
2017-11-27T07:41:38.633Z,0
2017-11-27T07:42:51.331Z,0
2017-11-27T07:44:04.314Z,0
2017-11-27T07:45:17.252Z,0
2017-11-27T07:46:30.235Z,0
2017-11-27T07:47:43.232Z,0
2017-11-27T07:48:56.184Z,0
2017-11-27T07:50:08.742Z,0
2017-11-27T07:51:21.278Z,4
2017-11-27T07:52:34.256Z,4
2017-11-27T07:53:47.258Z,4
2017-11-27T07:54:59.756Z,4
2017-11-27T07:56:12.738Z,8
2017-11-27T07:57:25.712Z,12
2017-11-27T07:58:38.252Z,12
2017-11-27T07:59:51.231Z,16
2017-11-27T08:01:04.231Z,20
2017-11-27T08:02:17.207Z,24
2017-11-27T08:03:30.240Z,24
2017-11-27T08:04:42.739Z,24
2017-11-27T08:05:55.288Z,24
2017-11-27T08:07:08.230Z,20
2017-11-27T08:08:20.749Z,16
2017-11-27T08:09:33.772Z,20
2017-11-27T08:10:46.309Z,20
2017-11-27T08:11:57.939Z,16
2017-11-27T08:13:10.434Z,20
2017-11-27T08:14:22.981Z,32
2017-11-27T08:15:35.975Z,60
2017-11-27T08:16:48.936Z,100
2017-11-27T08:18:01.490Z,116
2017-11-27T08:19:14.501Z,104
2017-11-27T08:20:27.493Z,116
2017-11-27T08:21:40.503Z,144
2017-11-27T08:22:53.574Z,168
2017-11-27T08:24:06.085Z,184
2017-11-27T08:25:19.043Z,184
2017-11-27T08:26:31.997Z,184
2017-11-27T08:27:45.008Z,164
2017-11-27T08:28:58.020Z,132
2017-11-27T08:30:10.566Z,108
2017-11-27T08:31:22.605Z,104
2017-11-27T08:32:35.130Z,108
2017-11-27T08:33:47.658Z,124
2017-11-27T08:35:00.645Z,140
2017-11-27T08:36:12.737Z,152
2017-11-27T08:37:25.281Z,172
2017-11-27T08:38:37.803Z,204
2017-11-27T08:39:49.818Z,248
2017-11-27T08:41:02.332Z,248
2017-11-27T08:42:15.313Z,220
2017-11-27T08:43:27.827Z,164
2017-11-27T08:44:40.331Z,140
2017-11-27T08:45:53.327Z,140
2017-11-27T08:47:06.326Z,160
2017-11-27T08:48:19.297Z,176
2017-11-27T08:49:31.869Z,208
2017-11-27T08:50:43.901Z,232
2017-11-27T08:51:56.929Z,260
2017-11-27T08:53:09.404Z,264
2017-11-27T08:54:22.386Z,232
2017-11-27T08:55:34.984Z,232
2017-11-27T08:56:47.496Z,260
2017-11-27T08:58:00.487Z,264
2017-11-27T08:59:13.524Z,260
2017-11-27T09:00:26.544Z,292
2017-11-27T09:01:39.282Z,264
2017-11-27T09:02:51.850Z,284
2017-11-27T09:04:04.816Z,284
2017-11-27T09:05:17.569Z,252
2017-11-27T09:06:29.604Z,220
2017-11-27T09:07:42.575Z,236
2017-11-27T09:08:55.543Z,368
2017-11-27T09:10:08.046Z,512
2017-11-27T09:11:21.090Z,656
2017-11-27T09:12:34.062Z,552
2017-11-27T09:13:47.111Z,444
2017-11-27T09:15:00.091Z,404
2017-11-27T09:16:12.161Z,364
2017-11-27T09:17:25.154Z,304
2017-11-27T09:18:38.079Z,264
2017-11-27T09:19:51.070Z,340
2017-11-27T09:21:04.078Z,336
2017-11-27T09:22:17.276Z,464
2017-11-27T09:23:30.279Z,404
2017-11-27T09:24:42.771Z,412
2017-11-27T09:25:55.772Z,480
2017-11-27T09:27:08.781Z,460
2017-11-27T09:28:21.715Z,548
2017-11-27T09:29:33.772Z,696
2017-11-27T09:30:45.819Z,904
2017-11-27T09:31:58.100Z,1016
2017-11-27T09:33:11.117Z,1152
2017-11-27T09:34:24.120Z,1272
2017-11-27T09:35:37.086Z,1168
2017-11-27T09:36:49.669Z,1080
2017-11-27T09:38:02.691Z,980
2017-11-27T09:39:15.251Z,1148
2017-11-27T09:40:27.742Z,1284
2017-11-27T09:41:40.706Z,1224
2017-11-27T09:42:53.706Z,1172
2017-11-27T09:44:06.239Z,1172
2017-11-27T09:45:18.759Z,1284
2017-11-27T09:46:31.730Z,1488
2017-11-27T09:47:44.320Z,1248
2017-11-27T09:48:57.285Z,728
2017-11-27T09:50:09.834Z,740
2017-11-27T09:51:22.831Z,996
2017-11-27T09:52:36.033Z,832
2017-11-27T09:53:48.131Z,2488
2017-11-27T09:55:01.139Z,3000
2017-11-27T09:56:13.682Z,2836
2017-11-27T09:57:26.237Z,3268
2017-11-27T09:58:37.815Z,3344
2017-11-27T09:59:50.816Z,2460
2017-11-27T10:01:03.359Z,3804
2017-11-27T10:02:15.890Z,3028
2017-11-27T10:03:28.843Z,1940
2017-11-27T10:04:40.442Z,2704
2017-11-27T10:05:53.490Z,4464
2017-11-27T10:07:06.032Z,4364
2017-11-27T10:08:19.378Z,4264
2017-11-27T10:09:31.882Z,3352
2017-11-27T10:10:43.942Z,3532
2017-11-27T10:11:56.933Z,3876
2017-11-27T10:13:09.806Z,3760
2017-11-27T10:14:22.818Z,3940
2017-11-27T10:15:35.349Z,5028
2017-11-27T10:16:47.873Z,6896
2017-11-27T10:17:59.933Z,8820
2017-11-27T10:19:11.516Z,9744
2017-11-27T10:20:24.531Z,10180
2017-11-27T10:21:36.574Z,12372
2017-11-27T10:22:49.574Z,15272
2017-11-27T10:24:02.567Z,19552
2017-11-27T10:25:15.630Z,17984
2017-11-27T10:26:28.194Z,18464
2017-11-27T10:27:41.226Z,18720
2017-11-27T10:28:53.730Z,18656
2017-11-27T10:30:06.770Z,17152
2017-11-27T10:31:19.339Z,17224
2017-11-27T10:32:31.845Z,17208
2017-11-27T10:33:44.824Z,15976
2017-11-27T10:34:57.391Z,16520
2017-11-27T10:36:10.440Z,18080
2017-11-27T10:37:23.401Z,23040
2017-11-27T10:38:36.355Z,25440
2017-11-27T10:39:49.375Z,33504
2017-11-27T10:41:02.428Z,29536
2017-11-27T10:42:15.406Z,29088
2017-11-27T10:43:28.590Z,26912
2017-11-27T10:44:41.564Z,23296
2017-11-27T10:45:54.685Z,25952
2017-11-27T10:47:07.186Z,26656
2017-11-27T10:48:19.738Z,27680
2017-11-27T10:49:32.521Z,35520
2017-11-27T10:50:45.529Z,41152
2017-11-27T10:51:58.492Z,45056
2017-11-27T10:53:10.573Z,86400
2017-11-27T10:54:23.583Z,42112
2017-11-27T10:55:36.142Z,39360
2017-11-27T10:56:48.185Z,60928
2017-11-27T10:58:01.162Z,63360
2017-11-27T10:59:14.143Z,24800
2017-11-27T11:00:27.172Z,88736
2017-11-27T11:01:40.228Z,97856
2017-11-27T11:02:53.239Z,95680
2017-11-27T11:04:06.253Z,81888
2017-11-27T11:05:18.338Z,92032
2017-11-27T11:06:31.349Z,37312
2017-11-27T11:07:43.853Z,33696
2017-11-27T11:08:56.397Z,75904
2017-11-27T11:10:09.380Z,60192
2017-11-27T11:11:53.634Z,53728
2017-11-27T11:13:06.133Z,41568
2017-11-27T11:14:18.669Z,66080
2017-11-27T11:15:31.351Z,62144
2017-11-27T11:16:44.349Z,90752
2017-11-27T11:17:56.895Z,35072
2017-11-27T11:19:09.947Z,36320
2017-11-27T11:20:22.571Z,84992
2017-11-27T11:21:35.104Z,54848
2017-11-27T11:22:47.656Z,41760
2017-11-27T11:24:00.815Z,38144
2017-11-27T11:25:14.037Z,34496
2017-11-27T11:26:27.203Z,28608
2017-11-27T11:27:39.739Z,27200
2017-11-27T11:28:51.819Z,29312
2017-11-27T11:30:04.356Z,32864
2017-11-27T11:31:15.532Z,42336
2017-11-27T11:32:27.624Z,51040
2017-11-27T11:33:40.680Z,53312
2017-11-27T11:34:53.475Z,58720
2017-11-27T11:36:06.469Z,52864
2017-11-27T11:37:19.027Z,52288
2017-11-27T11:38:32.066Z,45312
2017-11-27T11:39:44.630Z,41728
2017-11-27T11:40:57.756Z,41568
2017-11-27T11:42:10.539Z,45856
2017-11-27T11:43:23.562Z,42368
2017-11-27T11:44:36.576Z,81312
2017-11-27T11:45:49.529Z,55584
2017-11-27T11:47:02.564Z,97152
2017-11-27T11:48:15.550Z,71232
2017-11-27T11:49:28.536Z,50080
2017-11-27T11:50:41.581Z,47232
2017-11-27T11:51:54.580Z,46336
2017-11-27T11:53:07.593Z,61056
2017-11-27T11:54:20.922Z,35904
2017-11-27T11:55:34.518Z,30816
2017-11-27T11:56:47.524Z,33472
2017-11-27T11:58:00.252Z,33376
2017-11-27T11:59:13.354Z,25376
2017-11-27T12:00:25.424Z,18304
2017-11-27T12:01:37.967Z,20128
2017-11-27T12:02:50.049Z,21536
2017-11-27T12:04:03.068Z,23808
2017-11-27T12:05:16.096Z,22336
2017-11-27T12:06:28.702Z,22752
2017-11-27T12:07:41.700Z,23616
2017-11-27T12:08:54.722Z,22912
2017-11-27T12:10:06.796Z,28352
2017-11-27T12:11:19.335Z,43200
2017-11-27T12:12:31.871Z,60768
2017-11-27T12:13:43.903Z,41152
2017-11-27T12:14:56.463Z,31680
2017-11-27T12:16:08.965Z,30112
2017-11-27T12:17:21.946Z,25760
2017-11-27T12:18:35.053Z,29824
2017-11-27T12:19:47.129Z,42944
2017-11-27T12:21:00.133Z,37536
2017-11-27T12:22:13.143Z,33184
2017-11-27T12:23:25.215Z,28256
2017-11-27T12:24:38.252Z,30592
2017-11-27T12:25:50.841Z,32256
2017-11-27T12:27:03.352Z,26016
2017-11-27T12:28:16.397Z,25088
2017-11-27T12:29:29.398Z,28256
2017-11-27T12:30:41.506Z,34752
2017-11-27T12:31:54.548Z,40064
2017-11-27T12:33:07.533Z,31936
2017-11-27T12:34:20.051Z,23872
2017-11-27T12:35:32.129Z,21376
2017-11-27T12:36:44.172Z,19520
2017-11-27T12:37:57.178Z,15920
2017-11-27T12:39:10.179Z,15016
2017-11-27T12:40:23.217Z,14228
2017-11-27T12:41:35.300Z,11980
2017-11-27T12:42:47.852Z,10420
2017-11-27T12:43:59.921Z,13224
2017-11-27T12:45:12.915Z,19296
2017-11-27T12:46:25.952Z,22784
2017-11-27T12:47:38.064Z,30336
2017-11-27T12:48:51.132Z,45472
2017-11-27T12:50:03.695Z,48832
2017-11-27T12:51:16.279Z,61760
2017-11-27T12:52:28.852Z,88192
2017-11-27T12:53:41.436Z,86592
2017-11-27T12:54:54.491Z,100768
2017-11-27T12:56:07.284Z,58528
2017-11-27T12:57:19.833Z,75936
2017-11-27T12:58:32.836Z,73056
2017-11-27T12:59:45.879Z,50336
2017-11-27T13:00:58.883Z,118944
2017-11-27T13:02:11.073Z,65696
2017-11-27T13:03:23.113Z,155296
2017-11-27T13:04:36.087Z,148672
2017-11-27T13:05:48.668Z,67136
2017-11-27T13:07:01.719Z,42560
2017-11-27T13:08:14.311Z,39648
2017-11-27T13:09:27.311Z,60640
2017-11-27T13:10:40.346Z,49024
2017-11-27T13:11:53.093Z,43040
2017-11-27T13:13:06.093Z,48032
2017-11-27T13:14:19.092Z,38624
2017-11-27T13:15:32.108Z,28320
2017-11-27T13:16:45.112Z,21472
2017-11-27T13:17:58.161Z,16768
2017-11-27T13:19:11.200Z,21216
2017-11-27T13:20:23.751Z,38080
2017-11-27T13:21:36.782Z,49600
2017-11-27T13:22:48.382Z,170592
2017-11-27T13:24:01.420Z,70688
2017-11-27T13:25:14.462Z,123072
2017-11-27T13:26:26.996Z,113088
2017-11-27T13:27:39.533Z,66336
2017-11-27T13:28:52.533Z,60960
2017-11-27T13:30:05.524Z,155968
2017-11-27T13:31:18.218Z,168928
2017-11-27T13:32:30.281Z,171488
2017-11-27T13:33:42.810Z,74752
2017-11-27T13:34:55.833Z,148960
2017-11-27T13:36:09.537Z,77824
2017-11-27T13:37:22.136Z,79296
2017-11-27T13:38:34.211Z,181024
2017-11-27T13:39:47.217Z,86112
2017-11-27T13:40:59.835Z,126976
2017-11-27T13:42:12.376Z,70432
2017-11-27T13:43:25.001Z,73280
2017-11-27T13:44:38.032Z,62528
2017-11-27T13:45:50.616Z,95872
2017-11-27T13:47:03.138Z,74432
2017-11-27T13:48:16.171Z,64128
2017-11-27T13:49:29.185Z,129440
2017-11-27T13:50:42.215Z,178304
2017-11-27T13:51:55.236Z,55360
2017-11-27T13:53:08.311Z,57408
2017-11-27T13:54:21.347Z,63232
2017-11-27T13:55:34.397Z,96160
2017-11-27T13:56:47.412Z,65024
2017-11-27T13:58:00.478Z,60800
2017-11-27T13:59:13.735Z,65728
2017-11-27T14:00:26.749Z,52032
2017-11-27T14:01:39.727Z,41632
2017-11-27T14:02:52.259Z,30944
2017-11-27T14:04:05.333Z,26048
2017-11-27T14:05:17.905Z,26752
2017-11-27T14:06:30.445Z,30304
2017-11-27T14:07:42.973Z,50560
2017-11-27T14:08:55.956Z,40224
2017-11-27T14:10:08.060Z,25952
2017-11-27T14:11:21.095Z,19392
2017-11-27T14:12:34.131Z,18048
2017-11-27T14:13:47.159Z,19424
2017-11-27T14:14:59.706Z,24224
2017-11-27T14:16:12.728Z,35808
2017-11-27T14:17:25.709Z,43648
2017-11-27T14:18:38.748Z,47104
2017-11-27T14:19:51.785Z,40576
2017-11-27T14:21:05.009Z,28960
2017-11-27T14:22:17.546Z,23040
2017-11-27T14:23:30.554Z,20608
2017-11-27T14:24:43.574Z,19200
2017-11-27T14:25:56.587Z,18912
2017-11-27T14:27:09.586Z,19616
2017-11-27T14:28:22.089Z,21472
2017-11-27T14:29:34.597Z,24160
2017-11-27T14:30:47.619Z,16216
2017-11-27T14:32:00.167Z,22496
2017-11-27T14:33:13.190Z,16272
2017-11-27T14:34:26.253Z,21024
2017-11-27T14:35:38.862Z,26176
2017-11-27T14:36:51.893Z,24416
2017-11-27T14:38:05.575Z,21376
2017-11-27T14:39:18.148Z,23008
2017-11-27T14:40:31.145Z,41920
2017-11-27T14:41:43.889Z,116032
2017-11-27T14:42:56.873Z,119200
2017-11-27T14:44:09.410Z,69920
2017-11-27T14:45:22.474Z,72064
2017-11-27T14:46:35.480Z,68000
2017-11-27T14:47:47.974Z,132736
2017-11-27T14:49:00.047Z,61408
2017-11-27T14:50:12.609Z,54592
2017-11-27T14:51:25.628Z,49856
2017-11-27T14:52:38.614Z,45056
2017-11-27T14:53:51.596Z,44064
2017-11-27T14:55:03.640Z,46528
2017-11-27T14:56:16.163Z,56704
2017-11-27T14:57:28.707Z,59488
2017-11-27T14:58:41.258Z,93824
2017-11-27T14:59:53.796Z,181440
2017-11-27T15:01:06.834Z,140768
2017-11-27T15:02:19.401Z,157568
2017-11-27T15:03:31.800Z,121152
2017-11-27T15:04:44.330Z,150880
2017-11-27T15:05:57.364Z,64704
2017-11-27T15:07:10.434Z,61120
2017-11-27T15:08:22.563Z,57632
2017-11-27T15:09:35.137Z,60448
2017-11-27T15:10:47.693Z,89632
2017-11-27T15:12:00.720Z,56448
2017-11-27T15:13:13.261Z,52480
2017-11-27T15:14:26.515Z,47456
2017-11-27T15:15:39.700Z,47360
2017-11-27T15:16:52.709Z,84512
2017-11-27T15:18:05.711Z,49728
2017-11-27T15:19:18.711Z,46304
2017-11-27T15:20:31.713Z,46976
2017-11-27T15:21:44.252Z,46112
2017-11-27T15:22:57.301Z,47072
2017-11-27T15:24:10.323Z,50304
2017-11-27T15:25:23.290Z,54400
2017-11-27T15:26:36.276Z,54368
2017-11-27T15:27:49.300Z,54368
2017-11-27T15:29:02.311Z,59168
2017-11-27T15:30:15.354Z,70496
2017-11-27T15:31:28.543Z,61440
2017-11-27T15:32:41.532Z,57120
2017-11-27T15:33:54.294Z,76480
2017-11-27T15:35:07.324Z,89280
2017-11-27T15:36:19.807Z,115264
2017-11-27T15:37:32.813Z,58432
2017-11-27T15:38:45.354Z,62688
2017-11-27T15:39:58.386Z,116352
2017-11-27T15:41:11.604Z,72416
2017-11-27T15:42:24.693Z,157376
2017-11-27T15:43:37.733Z,142464
2017-11-27T15:44:49.769Z,159136
2017-11-27T15:46:02.804Z,122336
2017-11-27T15:47:15.360Z,62784
2017-11-27T15:48:27.872Z,135200
2017-11-27T15:49:40.397Z,125312
2017-11-27T15:50:52.931Z,119840
2017-11-27T15:52:05.462Z,119744
2017-11-27T15:53:18.476Z,115872
2017-11-27T15:54:31.503Z,77024
2017-11-27T15:55:44.019Z,117952
2017-11-27T15:56:57.037Z,135776
2017-11-27T15:58:08.864Z,115584
2017-11-27T15:59:21.859Z,64512
2017-11-27T16:00:34.889Z,78112
2017-11-27T16:01:47.453Z,73024
2017-11-27T16:03:00.510Z,119328
2017-11-27T16:04:13.517Z,119104
2017-11-27T16:05:26.577Z,63136
2017-11-27T16:06:39.128Z,28608
2017-11-27T16:07:52.141Z,24352
2017-11-27T16:09:05.162Z,23328
2017-11-27T16:10:16.794Z,26272
2017-11-27T16:11:30.474Z,34176
2017-11-27T16:12:43.056Z,38560
2017-11-27T16:13:56.115Z,40992
2017-11-27T16:15:09.144Z,46784
2017-11-27T16:16:22.122Z,124864
2017-11-27T16:17:35.148Z,60640
2017-11-27T16:18:48.170Z,124384
2017-11-27T16:20:01.160Z,116896
2017-11-27T16:21:14.414Z,50400
2017-11-27T16:22:27.044Z,63904
2017-11-27T16:23:40.068Z,51712
2017-11-27T16:24:52.588Z,62656
2017-11-27T16:26:05.170Z,83360
2017-11-27T16:27:18.186Z,55552
2017-11-27T16:28:30.799Z,40000
2017-11-27T16:29:43.870Z,40000
2017-11-27T16:30:56.893Z,42816
2017-11-27T16:32:09.889Z,42432
2017-11-27T16:33:22.920Z,74464
2017-11-27T16:34:35.067Z,56256
2017-11-27T16:35:48.066Z,95232
2017-11-27T16:37:01.071Z,97216
2017-11-27T16:38:13.637Z,95264
2017-11-27T16:39:26.195Z,87872
2017-11-27T16:40:39.210Z,48864
2017-11-27T16:41:52.970Z,52384
2017-11-27T16:43:06.000Z,82976
2017-11-27T16:44:18.536Z,103520
2017-11-27T16:45:31.092Z,89152
2017-11-27T16:46:43.660Z,59648